Time;durP1;ratioP1;P1;durP2;ratioP2;P2;SDS_P1;SDS_P2;PMS_P1;PMS_P2;Temp;Humidity;BMP_temperature;BMP_pressure;BME280_temperature;BME280_humidity;BME280_pressure;Samples;Min_cycle;Max_cycle;Signal;HPM_P1;HPM_P2
2022/03/27 00:01:52;;;;;;;22.83;7.25;;;;;;;;;;5062678;28;20213;-69
2022/03/27 00:04:19;;;;;;;24.48;7.25;;;;;;;;;;5061526;28;20232;-70
2022/03/27 00:06:47;;;;;;;25.63;7.10;;;;;;;;;;5061157;28;20350;-70
2022/03/27 00:09:15;;;;;;;19.70;6.55;;;;;;;;;;5060648;28;20213;-70
2022/03/27 00:11:42;;;;;;;23.50;8.30;;;;;;;;;;5061329;28;20197;-69
2022/03/27 00:14:12;;;;;;;25.75;7.30;;;;;;;;;;5060030;28;20210;-69
2022/03/27 00:16:39;;;;;;;30.80;7.90;;;;;;;;;;5061498;28;20618;-71
2022/03/27 00:19:06;;;;;;;25.65;8.13;;;;;;;;;;5062018;28;20200;-71
2022/03/27 00:21:34;;;;;;;27.90;7.85;;;;;;;;;;5061507;28;20201;-70
2022/03/27 00:24:02;;;;;;;22.50;7.25;;;;;;;;;;5061577;28;20778;-69
2022/03/27 00:26:29;;;;;;;28.33;7.40;;;;;;;;;;5063364;28;20196;-69
2022/03/27 00:28:56;;;;;;;22.67;6.72;;;;;;;;;;5058115;28;20200;-69
2022/03/27 00:31:25;;;;;;;21.75;7.30;;;;;;;;;;5062572;28;20200;-71
2022/03/27 00:33:53;;;;;;;27.23;8.13;;;;;;;;;;5061489;28;20682;-69
2022/03/27 00:36:21;;;;;;;23.08;7.53;;;;;;;;;;5061238;28;20199;-69
2022/03/27 00:38:48;;;;;;;26.08;8.27;;;;;;;;;;5060852;28;20656;-73
2022/03/27 00:41:16;;;;;;;26.45;7.47;;;;;;;;;;5063102;28;20201;-70
2022/03/27 00:43:43;;;;;;;27.75;7.97;;;;;;;;;;5066644;28;20207;-70
2022/03/27 00:46:11;;;;;;;27.50;7.75;;;;;;;;;;5064117;28;20200;-69
2022/03/27 00:48:40;;;;;;;35.10;12.00;;;;;;;;;;5063412;28;20310;-69
2022/03/27 00:51:07;;;;;;;24.52;8.48;;;;;;;;;;5064820;28;20212;-69
2022/03/27 00:53:35;;;;;;;25.08;7.93;;;;;;;;;;5064866;28;20204;-70
2022/03/27 00:56:02;;;;;;;26.33;7.78;;;;;;;;;;5066245;28;20241;-69
2022/03/27 00:58:33;;;;;;;32.65;7.65;;;;;;;;;;5062668;28;20212;-69
2022/03/27 01:01:05;;;;;;;41.05;8.63;;;;;;;;;;5065033;28;20610;-69
2022/03/27 01:03:33;;;;;;;23.20;7.60;;;;;;;;;;5065129;28;20207;-68
2022/03/27 01:06:02;;;;;;;28.45;8.35;;;;;;;;;;5064350;28;20256;-68
2022/03/27 01:11:16;;;;;;;23.17;7.70;;;;;;;;;;5065418;28;20227;-69
2022/03/27 01:13:55;;;;;;;25.83;8.20;;;;;;;;;;5064444;28;20213;-68
2022/03/27 01:16:37;;;;;;;24.10;7.93;;;;;;;;;;5065795;28;20763;-68
2022/03/27 01:19:06;;;;;;;29.50;9.90;;;;;;;;;;5059901;28;20299;-69
2022/03/27 01:21:38;;;;;;;24.52;9.27;;;;;;;;;;5065431;28;20267;-69
2022/03/27 01:24:06;;;;;;;26.35;9.27;;;;;;;;;;5066367;28;20787;-68
2022/03/27 01:26:33;;;;;;;26.83;9.05;;;;;;;;;;5064179;28;20204;-68
2022/03/27 01:29:01;;;;;;;29.08;9.05;;;;;;;;;;5062677;28;20295;-68
2022/03/27 01:31:28;;;;;;;26.52;7.95;;;;;;;;;;5064289;28;20206;-68
2022/03/27 01:33:56;;;;;;;33.20;9.40;;;;;;;;;;5064637;28;20204;-69
2022/03/27 01:36:24;;;;;;;28.70;9.50;;;;;;;;;;5063633;28;20695;-68
2022/03/27 01:38:54;;;;;;;27.23;10.15;;;;;;;;;;5062364;28;20261;-69
2022/03/27 01:41:21;;;;;;;29.05;9.20;;;;;;;;;;5066088;28;20223;-68
2022/03/27 01:43:49;;;;;;;31.15;10.25;;;;;;;;;;5063539;28;20203;-69
2022/03/27 01:46:16;;;;;;;25.55;9.00;;;;;;;;;;5062317;28;20723;-69
2022/03/27 01:48:44;;;;;;;26.20;9.32;;;;;;;;;;5065869;28;20201;-69
2022/03/27 01:51:11;;;;;;;26.67;8.10;;;;;;;;;;5064218;28;20663;-68
2022/03/27 01:53:39;;;;;;;30.20;9.30;;;;;;;;;;5063657;28;20212;-69
2022/03/27 01:56:08;;;;;;;25.58;9.23;;;;;;;;;;5063159;28;20205;-69
2022/03/27 01:58:38;;;;;;;24.70;7.50;;;;;;;;;;5063786;28;20586;-68
2022/03/27 02:01:06;;;;;;;22.95;8.20;;;;;;;;;;5062893;28;20265;-70
2022/03/27 02:03:34;;;;;;;33.15;9.32;;;;;;;;;;5064269;28;20207;-70
2022/03/27 02:06:05;;;;;;;27.35;8.50;;;;;;;;;;5062208;28;20724;-68
2022/03/27 02:08:33;;;;;;;24.33;8.32;;;;;;;;;;5064734;28;20558;-68
2022/03/27 02:11:00;;;;;;;25.25;9.48;;;;;;;;;;5065362;28;20264;-70
2022/03/27 02:13:30;;;;;;;43.30;10.82;;;;;;;;;;5062551;28;20566;-69
2022/03/27 02:15:58;;;;;;;23.80;8.65;;;;;;;;;;5061234;28;20217;-68
2022/03/27 02:18:27;;;;;;;27.25;9.95;;;;;;;;;;5063369;28;20206;-69
2022/03/27 02:20:55;;;;;;;27.27;7.90;;;;;;;;;;5062994;28;20204;-69
2022/03/27 02:23:22;;;;;;;30.83;8.70;;;;;;;;;;5064190;28;20245;-68
2022/03/27 02:25:50;;;;;;;23.33;7.85;;;;;;;;;;5061020;28;20235;-68
2022/03/27 02:28:18;;;;;;;31.42;8.10;;;;;;;;;;5063053;28;20294;-68
2022/03/27 02:30:47;;;;;;;33.08;10.40;;;;;;;;;;5065709;28;20574;-69
2022/03/27 02:33:16;;;;;;;24.10;8.27;;;;;;;;;;5060895;28;20202;-68
2022/03/27 02:35:43;;;;;;;24.30;7.13;;;;;;;;;;5062517;28;20794;-69
2022/03/27 02:38:12;;;;;;;24.98;8.40;;;;;;;;;;5063319;28;20654;-69
2022/03/27 02:40:40;;;;;;;23.40;8.07;;;;;;;;;;5062269;28;20295;-70
2022/03/27 02:43:07;;;;;;;26.08;7.82;;;;;;;;;;5060601;28;20681;-68
2022/03/27 02:45:35;;;;;;;30.42;8.73;;;;;;;;;;5060909;28;20734;-68
2022/03/27 02:48:04;;;;;;;27.98;7.43;;;;;;;;;;5064534;28;20196;-70
2022/03/27 02:50:31;;;;;;;25.17;9.13;;;;;;;;;;5062823;28;20206;-70
2022/03/27 02:52:59;;;;;;;35.63;9.20;;;;;;;;;;5061815;28;20206;-72
2022/03/27 02:55:27;;;;;;;24.75;7.65;;;;;;;;;;5062246;28;20238;-68
2022/03/27 02:57:54;;;;;;;25.17;8.23;;;;;;;;;;5063470;28;20676;-69
2022/03/27 03:00:22;;;;;;;26.17;8.18;;;;;;;;;;5062450;28;20196;-68
2022/03/27 03:02:50;;;;;;;23.30;7.45;;;;;;;;;;5062970;28;20208;-71
2022/03/27 03:05:20;;;;;;;22.85;7.05;;;;;;;;;;5060314;28;20244;-67
2022/03/27 03:07:47;;;;;;;23.42;7.50;;;;;;;;;;5062045;28;20199;-68
2022/03/27 03:10:15;;;;;;;34.45;8.18;;;;;;;;;;5063394;28;20217;-68
2022/03/27 03:12:43;;;;;;;24.33;7.25;;;;;;;;;;5061425;28;20214;-68
2022/03/27 03:15:10;;;;;;;27.50;7.88;;;;;;;;;;5063319;28;20286;-68
2022/03/27 03:17:38;;;;;;;23.95;6.88;;;;;;;;;;5062647;28;20200;-68
2022/03/27 03:20:08;;;;;;;26.92;8.15;;;;;;;;;;5061680;28;20207;-70
2022/03/27 03:22:40;;;;;;;23.13;7.07;;;;;;;;;;5061944;28;20643;-70
2022/03/27 03:25:08;;;;;;;38.50;7.05;;;;;;;;;;5060737;28;20227;-68
2022/03/27 03:27:36;;;;;;;33.15;8.50;;;;;;;;;;5062735;28;20197;-68
2022/03/27 03:30:04;;;;;;;21.95;6.28;;;;;;;;;;5061873;28;20207;-68
2022/03/27 03:32:34;;;;;;;25.52;7.03;;;;;;;;;;5062824;28;20686;-67
2022/03/27 03:35:02;;;;;;;29.00;7.45;;;;;;;;;;5059571;28;20223;-67
2022/03/27 03:37:29;;;;;;;26.58;7.85;;;;;;;;;;5061438;28;20205;-69
2022/03/27 03:39:59;;;;;;;30.15;7.35;;;;;;;;;;5063809;28;20215;-67
2022/03/27 03:42:27;;;;;;;22.13;7.18;;;;;;;;;;5059622;28;20205;-67
2022/03/27 03:44:54;;;;;;;24.63;7.03;;;;;;;;;;5062814;28;20275;-68
2022/03/27 03:47:22;;;;;;;25.27;6.95;;;;;;;;;;5061309;28;20204;-69
2022/03/27 03:49:49;;;;;;;25.00;7.68;;;;;;;;;;5060992;28;20660;-69
2022/03/27 03:52:17;;;;;;;22.30;6.40;;;;;;;;;;5060087;28;20306;-68
2022/03/27 03:54:45;;;;;;;26.98;7.35;;;;;;;;;;5061635;28;20204;-68
2022/03/27 03:57:14;;;;;;;23.65;7.22;;;;;;;;;;5059591;28;20729;-68
2022/03/27 03:59:41;;;;;;;25.65;6.43;;;;;;;;;;5061797;28;20563;-67
2022/03/27 04:02:10;;;;;;;29.73;8.27;;;;;;;;;;5059522;28;20311;-67
2022/03/27 04:04:38;;;;;;;19.70;6.75;;;;;;;;;;5058729;28;20592;-68
2022/03/27 04:07:06;;;;;;;23.33;6.18;;;;;;;;;;5061355;28;20233;-68
2022/03/27 04:09:33;;;;;;;26.08;6.43;;;;;;;;;;5062040;28;20287;-67
2022/03/27 04:12:01;;;;;;;19.50;6.65;;;;;;;;;;5060040;28;20566;-68
2022/03/27 04:14:34;;;;;;;28.85;6.45;;;;;;;;;;5061951;28;20204;-69
2022/03/27 04:17:01;;;;;;;24.55;6.03;;;;;;;;;;5064052;28;20860;-67
2022/03/27 04:19:29;;;;;;;23.85;7.28;;;;;;;;;;5064631;28;20296;-68
2022/03/27 04:21:57;;;;;;;31.42;6.85;;;;;;;;;;5063814;28;20291;-67
2022/03/27 04:24:25;;;;;;;25.52;6.88;;;;;;;;;;5063689;28;20593;-69
2022/03/27 04:26:52;;;;;;;22.58;5.70;;;;;;;;;;5061183;28;20234;-68
2022/03/27 04:29:19;;;;;;;21.65;5.32;;;;;;;;;;5064414;28;20204;-70
2022/03/27 04:31:49;;;;;;;22.17;5.63;;;;;;;;;;5063934;28;20688;-67
2022/03/27 04:34:16;;;;;;;32.47;9.60;;;;;;;;;;5064622;28;20205;-68
2022/03/27 04:36:44;;;;;;;21.45;6.65;;;;;;;;;;5063807;28;20212;-65
2022/03/27 04:39:11;;;;;;;24.70;6.80;;;;;;;;;;5064013;28;20678;-67
2022/03/27 04:41:39;;;;;;;59.53;20.92;;;;;;;;;;5065175;28;20224;-69
2022/03/27 04:44:07;;;;;;;26.20;6.78;;;;;;;;;;5065385;28;20563;-68
2022/03/27 04:46:35;;;;;;;33.75;12.68;;;;;;;;;;5065255;28;20247;-68
2022/03/27 04:49:04;;;;;;;23.02;8.70;;;;;;;;;;5064865;28;20258;-69
2022/03/27 04:51:31;;;;;;;20.67;5.65;;;;;;;;;;5062886;28;20201;-67
2022/03/27 04:53:59;;;;;;;24.70;7.75;;;;;;;;;;5066061;28;20223;-66
2022/03/27 04:56:26;;;;;;;30.40;7.80;;;;;;;;;;5064634;28;20205;-68
2022/03/27 04:58:54;;;;;;;19.88;6.80;;;;;;;;;;5063770;28;20287;-70
2022/03/27 05:01:21;;;;;;;23.95;6.90;;;;;;;;;;5064810;28;20200;-66
2022/03/27 05:03:49;;;;;;;24.93;8.53;;;;;;;;;;5071560;28;20214;-68
2022/03/27 05:06:19;;;;;;;24.00;6.77;;;;;;;;;;5064107;28;20999;-68
2022/03/27 05:08:46;;;;;;;24.13;6.93;;;;;;;;;;5062237;28;20452;-69
2022/03/27 05:11:14;;;;;;;33.93;9.37;;;;;;;;;;5066648;28;20450;-70
2022/03/27 05:13:41;;;;;;;23.03;7.60;;;;;;;;;;5064758;28;20457;-68
2022/03/27 05:16:08;;;;;;;23.03;7.00;;;;;;;;;;5056848;28;20460;-68
2022/03/27 05:18:36;;;;;;;25.37;6.90;;;;;;;;;;5064909;28;20522;-70
2022/03/27 05:21:03;;;;;;;25.23;7.13;;;;;;;;;;5064544;28;20456;-70
2022/03/27 05:23:33;;;;;;;34.23;6.80;;;;;;;;;;5063705;28;20492;-71
2022/03/27 05:26:02;;;;;;;21.13;6.40;;;;;;;;;;5061745;28;20852;-71
2022/03/27 05:28:30;;;;;;;19.83;6.30;;;;;;;;;;5064917;28;20451;-72
2022/03/27 05:30:57;;;;;;;21.77;7.23;;;;;;;;;;5064226;28;20476;-72
2022/03/27 05:33:25;;;;;;;26.70;6.83;;;;;;;;;;5065441;28;21056;-72
2022/03/27 05:35:53;;;;;;;21.00;6.20;;;;;;;;;;5064843;28;20460;-71
2022/03/27 05:38:20;;;;;;;62.37;31.00;;;;;;;;;;5065676;28;20458;-73
2022/03/27 05:40:49;;;;;;;38.97;15.40;;;;;;;;;;5063132;28;20478;-76
2022/03/27 05:43:17;;;;;;;55.47;28.37;;;;;;;;;;5064334;28;20455;-74
2022/03/27 05:45:44;;;;;;;25.93;8.97;;;;;;;;;;5063425;28;20855;-75
2022/03/27 05:48:14;;;;;;;26.90;8.40;;;;;;;;;;5063153;28;20820;-73
2022/03/27 05:50:41;;;;;;;31.93;7.67;;;;;;;;;;5065073;28;20472;-77
2022/03/27 05:53:09;;;;;;;26.13;8.33;;;;;;;;;;5063976;28;20447;-72
2022/03/27 05:55:36;;;;;;;21.90;7.30;;;;;;;;;;5062582;28;20452;-73
2022/03/27 05:58:07;;;;;;;21.80;8.00;;;;;;;;;;5061074;28;21088;-72
2022/03/27 06:00:34;;;;;;;28.20;8.03;;;;;;;;;;5066268;28;20507;-70
2022/03/27 06:03:02;;;;;;;24.33;7.50;;;;;;;;;;5061617;28;20539;-72
2022/03/27 06:05:29;;;;;;;29.03;7.93;;;;;;;;;;5060945;28;20488;-72
2022/03/27 06:07:58;;;;;;;22.80;7.00;;;;;;;;;;5065433;28;20820;-72
2022/03/27 06:10:26;;;;;;;25.70;8.43;;;;;;;;;;5064377;28;20452;-69
2022/03/27 06:12:54;;;;;;;24.53;6.73;;;;;;;;;;5063362;28;20958;-69
2022/03/27 06:15:23;;;;;;;26.20;8.80;;;;;;;;;;5064124;28;20450;-75
2022/03/27 06:17:52;;;;;;;22.07;8.50;;;;;;;;;;5064891;28;20441;-71
2022/03/27 06:20:20;;;;;;;22.17;7.27;;;;;;;;;;5064644;28;20443;-71
2022/03/27 06:22:48;;;;;;;22.80;7.53;;;;;;;;;;5061738;28;20451;-74
2022/03/27 06:25:16;;;;;;;216.67;101.27;;;;;;;;;;5066411;28;20445;-71
2022/03/27 06:27:44;;;;;;;33.30;10.10;;;;;;;;;;5064183;28;20475;-73
2022/03/27 06:30:13;;;;;;;24.60;6.87;;;;;;;;;;5062005;28;20956;-74
2022/03/27 06:32:42;;;;;;;25.03;7.87;;;;;;;;;;5065109;28;20443;-73
2022/03/27 06:35:11;;;;;;;22.23;7.07;;;;;;;;;;5063427;28;20435;-71
2022/03/27 06:37:38;;;;;;;22.83;7.97;;;;;;;;;;5065354;28;20956;-73
2022/03/27 06:40:07;;;;;;;22.43;8.00;;;;;;;;;;5063868;28;20457;-73
2022/03/27 06:42:35;;;;;;;22.40;7.90;;;;;;;;;;5064669;28;20443;-73
2022/03/27 06:45:03;;;;;;;24.80;8.20;;;;;;;;;;5062319;28;20816;-74
2022/03/27 06:47:30;;;;;;;21.80;8.67;;;;;;;;;;5062805;28;20484;-74
2022/03/27 06:50:01;;;;;;;23.40;9.33;;;;;;;;;;5063537;28;20450;-73
2022/03/27 06:52:30;;;;;;;24.13;7.77;;;;;;;;;;5063727;28;20444;-74
2022/03/27 06:54:57;;;;;;;47.93;22.80;;;;;;;;;;5063598;28;20483;-72
2022/03/27 06:57:25;;;;;;;30.50;13.93;;;;;;;;;;5063957;28;20488;-74
2022/03/27 07:05:25;;;;;;;30.53;7.70;;;;;;;;;;5065016;28;20469;-73
2022/03/27 07:07:52;;;;;;;30.43;7.27;;;;;;;;;;5062471;28;20838;-72
2022/03/27 07:10:20;;;;;;;25.00;7.93;;;;;;;;;;5065306;28;20454;-73
2022/03/27 07:12:48;;;;;;;23.77;8.20;;;;;;;;;;5061659;28;20458;-73
2022/03/27 07:15:15;;;;;;;31.90;9.20;;;;;;;;;;5062799;28;20446;-75
2022/03/27 07:17:46;;;;;;;21.97;8.03;;;;;;;;;;5063498;28;20452;-72
2022/03/27 07:20:14;;;;;;;21.57;7.23;;;;;;;;;;5063950;28;20903;-74
2022/03/27 07:22:43;;;;;;;25.43;8.30;;;;;;;;;;5066530;28;20808;-74
2022/03/27 07:25:11;;;;;;;25.73;8.53;;;;;;;;;;5059017;28;20952;-74
2022/03/27 07:27:38;;;;;;;23.43;7.50;;;;;;;;;;5060476;28;20564;-76
2022/03/27 07:30:07;;;;;;;25.63;8.20;;;;;;;;;;5065128;28;20450;-75
2022/03/27 07:32:36;;;;;;;23.20;8.03;;;;;;;;;;5058917;28;20448;-76
2022/03/27 07:35:04;;;;;;;26.80;8.40;;;;;;;;;;5064475;28;20439;-75
2022/03/27 07:37:34;;;;;;;25.03;9.60;;;;;;;;;;5062861;28;20981;-75
2022/03/27 07:40:06;;;;;;;27.27;8.90;;;;;;;;;;5062611;28;20438;-73
2022/03/27 07:42:34;;;;;;;27.30;9.17;;;;;;;;;;5062070;28;20483;-74
2022/03/27 07:45:02;;;;;;;27.13;8.77;;;;;;;;;;5062098;28;20827;-74
2022/03/27 07:47:29;;;;;;;29.00;9.40;;;;;;;;;;5060784;28;20483;-74
2022/03/27 07:49:57;;;;;;;40.83;14.83;;;;;;;;;;5060755;28;20527;-75
2022/03/27 07:52:25;;;;;;;37.83;14.33;;;;;;;;;;5061833;28;20452;-75
2022/03/27 07:54:52;;;;;;;35.10;14.07;;;;;;;;;;5061809;28;20841;-73
2022/03/27 07:57:21;;;;;;;26.23;9.60;;;;;;;;;;5063731;28;20457;-75
2022/03/27 07:59:49;;;;;;;27.70;10.70;;;;;;;;;;5061371;28;20446;-75
2022/03/27 08:02:16;;;;;;;39.77;9.83;;;;;;;;;;5060476;28;20453;-76
2022/03/27 08:04:44;;;;;;;28.60;8.83;;;;;;;;;;5062956;28;20828;-75
2022/03/27 08:07:12;;;;;;;26.47;8.60;;;;;;;;;;5061914;28;20495;-75
2022/03/27 08:09:39;;;;;;;23.33;8.37;;;;;;;;;;5062673;28;20956;-75
2022/03/27 08:12:08;;;;;;;27.67;8.20;;;;;;;;;;5060289;28;20432;-75
2022/03/27 08:14:38;;;;;;;25.03;8.90;;;;;;;;;;5063799;28;21177;-75
2022/03/27 08:17:05;;;;;;;29.13;9.50;;;;;;;;;;5061122;28;20465;-74
2022/03/27 08:19:33;;;;;;;23.20;7.33;;;;;;;;;;5060547;28;20461;-71
2022/03/27 08:22:01;;;;;;;35.13;11.23;;;;;;;;;;5064508;28;20948;-79
2022/03/27 08:24:29;;;;;;;31.80;9.20;;;;;;;;;;5061445;28;20493;-71
2022/03/27 08:27:00;;;;;;;30.93;9.43;;;;;;;;;;5062708;28;20487;-77
2022/03/27 08:29:29;;;;;;;26.93;7.70;;;;;;;;;;5064131;28;20491;-77
2022/03/27 08:32:00;;;;;;;29.03;9.13;;;;;;;;;;5061619;28;20513;-76
2022/03/27 08:34:29;;;;;;;24.87;8.23;;;;;;;;;;5058039;28;20444;-73
2022/03/27 08:36:56;;;;;;;31.77;9.37;;;;;;;;;;5061536;28;20452;-73
2022/03/27 08:39:24;;;;;;;22.30;8.50;;;;;;;;;;5061759;28;20976;-70
2022/03/27 08:41:54;;;;;;;29.83;9.17;;;;;;;;;;5060822;28;20443;-71
2022/03/27 08:44:21;;;;;;;26.10;8.70;;;;;;;;;;5061953;28;20459;-74
2022/03/27 08:46:50;;;;;;;26.20;9.00;;;;;;;;;;5061511;28;20938;-71
2022/03/27 08:49:30;;;;;;;24.20;9.10;;;;;;;;;;5061836;28;20437;-72
2022/03/27 08:51:59;;;;;;;29.03;9.67;;;;;;;;;;5062346;28;20503;-70
2022/03/27 08:54:27;;;;;;;28.03;9.30;;;;;;;;;;5062240;28;20498;-71
2022/03/27 08:57:02;;;;;;;26.27;8.27;;;;;;;;;;5058515;28;20454;-75
2022/03/27 08:59:30;;;;;;;34.17;14.20;;;;;;;;;;5063173;28;20438;-71
2022/03/27 09:01:58;;;;;;;28.53;11.37;;;;;;;;;;5065896;28;20961;-72
2022/03/27 09:04:27;;;;;;;31.17;9.93;;;;;;;;;;5063599;28;20463;-73
2022/03/27 09:06:55;;;;;;;28.83;9.23;;;;;;;;;;5065744;28;20484;-73
2022/03/27 09:09:22;;;;;;;26.93;8.90;;;;;;;;;;5066377;28;20450;-76
2022/03/27 09:11:51;;;;;;;24.53;9.73;;;;;;;;;;5062764;28;20438;-73
2022/03/27 09:14:18;;;;;;;28.53;8.20;;;;;;;;;;5064996;28;20456;-72
2022/03/27 09:17:03;;;;;;;33.87;9.33;;;;;;;;;;5061992;28;20478;-72
2022/03/27 09:19:36;;;;;;;30.73;10.33;;;;;;;;;;5062969;28;20459;-72
2022/03/27 09:22:14;;;;;;;39.60;12.23;;;;;;;;;;5067110;28;20819;-73
2022/03/27 09:24:42;;;;;;;29.50;9.17;;;;;;;;;;5065881;28;20511;-71
2022/03/27 09:27:10;;;;;;;39.73;14.00;;;;;;;;;;5064201;28;20490;-74
2022/03/27 09:29:57;;;;;;;30.60;11.70;;;;;;;;;;5064731;28;20482;-76
2022/03/27 09:32:28;;;;;;;29.33;12.13;;;;;;;;;;5066944;28;20951;-74
2022/03/27 09:35:01;;;;;;;25.73;9.80;;;;;;;;;;5063940;28;20969;-74
2022/03/27 09:37:37;;;;;;;26.30;8.90;;;;;;;;;;5065644;28;20443;-74
2022/03/27 09:40:05;;;;;;;27.27;10.20;;;;;;;;;;5065173;28;20518;-73
2022/03/27 09:42:32;;;;;;;26.73;8.80;;;;;;;;;;5063578;28;20514;-74
2022/03/27 09:45:13;;;;;;;27.23;9.53;;;;;;;;;;5066662;28;20443;-73
2022/03/27 09:47:40;;;;;;;26.20;9.60;;;;;;;;;;5064162;28;20475;-73
2022/03/27 09:50:10;;;;;;;26.50;9.60;;;;;;;;;;5064364;28;20451;-75
2022/03/27 09:52:37;;;;;;;31.80;10.57;;;;;;;;;;5065791;28;20454;-74
2022/03/27 09:55:07;;;;;;;29.70;9.57;;;;;;;;;;5064842;28;21042;-73
2022/03/27 09:57:35;;;;;;;28.10;11.47;;;;;;;;;;5063250;28;20456;-72
2022/03/27 10:00:14;;;;;;;23.43;8.20;;;;;;;;;;5065570;28;20448;-74
2022/03/27 10:02:42;;;;;;;23.97;9.13;;;;;;;;;;5064570;28;20444;-73
2022/03/27 10:05:12;;;;;;;24.23;9.03;;;;;;;;;;5061576;28;20460;-72
2022/03/27 10:07:41;;;;;;;27.97;9.03;;;;;;;;;;5066810;28;20541;-74
2022/03/27 10:10:10;;;;;;;40.27;9.23;;;;;;;;;;5061135;28;20443;-73
2022/03/27 10:12:38;;;;;;;29.73;10.30;;;;;;;;;;5061457;28;20444;-74
2022/03/27 10:15:07;;;;;;;25.63;8.40;;;;;;;;;;5065480;28;20451;-72
2022/03/27 10:17:35;;;;;;;31.40;9.43;;;;;;;;;;5063606;28;20489;-74
2022/03/27 10:20:08;;;;;;;28.23;8.83;;;;;;;;;;5067683;28;20584;-78
2022/03/27 10:22:39;;;;;;;33.87;11.50;;;;;;;;;;5064356;28;20432;-74
2022/03/27 10:25:08;;;;;;;32.50;9.40;;;;;;;;;;5063935;28;20455;-74
2022/03/27 10:27:36;;;;;;;27.73;9.63;;;;;;;;;;5062819;28;20540;-73
2022/03/27 10:30:04;;;;;;;32.83;8.53;;;;;;;;;;5063548;28;20446;-76
2022/03/27 10:32:32;;;;;;;34.57;10.27;;;;;;;;;;5062386;28;20442;-73
2022/03/27 10:35:06;;;;;;;27.27;9.00;;;;;;;;;;5062294;28;20525;-71
2022/03/27 10:37:35;;;;;;;28.27;9.80;;;;;;;;;;5061058;28;20843;-73
2022/03/27 10:40:09;;;;;;;22.83;8.17;;;;;;;;;;5062292;28;20456;-73
2022/03/27 10:42:40;;;;;;;25.10;8.50;;;;;;;;;;5062942;28;21170;-73
2022/03/27 10:45:09;;;;;;;26.87;9.10;;;;;;;;;;5063608;28;20444;-74
2022/03/27 10:47:37;;;;;;;25.90;9.57;;;;;;;;;;5061730;28;20480;-74
2022/03/27 10:50:29;;;;;;;23.73;7.83;;;;;;;;;;5067352;28;20460;-75
2022/03/27 10:53:14;;;;;;;33.07;16.43;;;;;;;;;;5053901;28;21005;-74
2022/03/27 10:55:44;;;;;;;30.73;12.70;;;;;;;;;;5061268;28;20438;-76
2022/03/27 10:58:31;;;;;;;29.27;8.70;;;;;;;;;;5065910;28;20497;-75
2022/03/27 11:00:59;;;;;;;21.30;7.13;;;;;;;;;;5060577;28;20445;-73
2022/03/27 11:03:45;;;;;;;25.93;6.97;;;;;;;;;;5062480;28;20455;-73
2022/03/27 11:06:23;;;;;;;24.90;8.43;;;;;;;;;;5063581;28;20990;-72
2022/03/27 11:08:50;;;;;;;27.20;8.33;;;;;;;;;;5061987;28;20499;-73
2022/03/27 11:11:36;;;;;;;28.23;9.33;;;;;;;;;;5059257;28;20968;-73
2022/03/27 11:14:06;;;;;;;31.63;12.93;;;;;;;;;;5062893;28;20457;-72
2022/03/27 11:16:36;;;;;;;24.37;6.00;;;;;;;;;;5059704;28;20862;-72
2022/03/27 11:19:04;;;;;;;21.53;7.47;;;;;;;;;;5061766;28;20885;-74
2022/03/27 11:21:47;;;;;;;26.60;10.00;;;;;;;;;;5062345;28;20856;-73
2022/03/27 11:24:27;;;;;;;23.60;8.63;;;;;;;;;;5061734;28;20542;-74
2022/03/27 11:26:55;;;;;;;27.73;9.30;;;;;;;;;;5059652;28;20445;-73
2022/03/27 11:29:24;;;;;;;24.50;6.60;;;;;;;;;;5061855;28;20461;-71
2022/03/27 11:32:09;;;;;;;21.10;6.57;;;;;;;;;;5061302;28;20434;-72
2022/03/27 11:34:37;;;;;;;23.53;7.20;;;;;;;;;;5063235;28;20445;-72
2022/03/27 11:37:26;;;;;;;26.70;7.90;;;;;;;;;;5062523;28;20439;-73
2022/03/27 11:39:54;;;;;;;22.43;7.43;;;;;;;;;;5060591;28;20524;-71
2022/03/27 11:42:32;;;;;;;25.43;8.80;;;;;;;;;;5065106;28;20871;-71
2022/03/27 11:45:14;;;;;;;24.33;7.77;;;;;;;;;;5061793;28;20524;-73
2022/03/27 11:47:42;;;;;;;22.67;8.10;;;;;;;;;;5061265;28;20998;-72
2022/03/27 11:50:10;;;;;;;26.30;8.40;;;;;;;;;;5063750;28;20450;-71
2022/03/27 11:52:38;;;;;;;32.80;15.17;;;;;;;;;;5059790;28;20448;-70
2022/03/27 11:55:06;;;;;;;30.10;12.30;;;;;;;;;;5059160;28;20458;-71
2022/03/27 11:57:44;;;;;;;25.63;8.63;;;;;;;;;;5060941;28;20966;-71
2022/03/27 12:00:14;;;;;;;20.97;8.30;;;;;;;;;;5058172;28;21294;-72
2022/03/27 12:02:43;;;;;;;29.60;7.73;;;;;;;;;;5062685;28;20435;-71
2022/03/27 12:05:11;;;;;;;21.57;7.60;;;;;;;;;;5061268;28;20453;-72
2022/03/27 12:07:55;;;;;;;33.00;8.50;;;;;;;;;;5061284;28;20487;-72
2022/03/27 12:10:23;;;;;;;25.00;7.10;;;;;;;;;;5060021;28;20448;-71
2022/03/27 12:12:58;;;;;;;21.37;6.53;;;;;;;;;;5061893;28;21038;-71
2022/03/27 12:15:37;;;;;;;30.03;8.03;;;;;;;;;;5058679;28;20458;-73
2022/03/27 12:18:05;;;;;;;21.43;6.43;;;;;;;;;;5063199;28;20436;-71
2022/03/27 12:20:41;;;;;;;24.13;8.60;;;;;;;;;;5061805;28;20462;-72
2022/03/27 12:23:18;;;;;;;20.37;7.40;;;;;;;;;;5060372;28;20499;-72
2022/03/27 12:25:45;;;;;;;24.60;9.00;;;;;;;;;;5058996;28;20542;-73
2022/03/27 12:30:59;;;;;;;23.40;8.63;;;;;;;;;;5061332;28;20448;-72
2022/03/27 12:33:27;;;;;;;29.27;8.50;;;;;;;;;;5060078;28;20461;-71
2022/03/27 12:36:05;;;;;;;21.50;6.50;;;;;;;;;;5061917;28;20440;-71
2022/03/27 12:38:32;;;;;;;24.97;7.00;;;;;;;;;;5065863;28;20544;-71
2022/03/27 12:41:00;;;;;;;22.40;6.30;;;;;;;;;;5067154;28;20528;-72
2022/03/27 12:43:28;;;;;;;21.27;8.10;;;;;;;;;;5066331;28;20948;-71
2022/03/27 12:45:56;;;;;;;26.20;6.33;;;;;;;;;;5065702;28;20429;-73
2022/03/27 12:48:27;;;;;;;23.10;6.20;;;;;;;;;;5065764;28;20481;-73
2022/03/27 12:50:56;;;;;;;20.87;6.07;;;;;;;;;;5065757;28;20479;-73
2022/03/27 12:53:27;;;;;;;24.03;5.97;;;;;;;;;;5063689;28;20446;-73
2022/03/27 12:55:56;;;;;;;20.50;5.53;;;;;;;;;;5064744;28;20432;-73
2022/03/27 12:58:34;;;;;;;20.30;5.90;;;;;;;;;;5066447;28;20440;-73
2022/03/27 13:01:07;;;;;;;31.63;6.17;;;;;;;;;;5063831;28;20486;-73
2022/03/27 13:03:36;;;;;;;21.77;6.70;;;;;;;;;;5061398;28;20454;-73
2022/03/27 13:06:05;;;;;;;21.60;7.27;;;;;;;;;;5066123;28;20474;-73
2022/03/27 13:08:34;;;;;;;25.97;5.63;;;;;;;;;;5065039;28;20560;-73
2022/03/27 13:11:02;;;;;;;19.00;5.67;;;;;;;;;;5065518;28;20441;-72
2022/03/27 13:13:33;;;;;;;19.90;5.10;;;;;;;;;;5066452;28;20453;-72
2022/03/27 13:16:00;;;;;;;19.80;6.10;;;;;;;;;;5064504;28;20868;-72
2022/03/27 13:18:30;;;;;;;19.63;5.53;;;;;;;;;;5063962;28;20452;-73
2022/03/27 13:21:01;;;;;;;21.23;5.50;;;;;;;;;;5065689;28;20436;-72
2022/03/27 13:23:29;;;;;;;18.73;5.20;;;;;;;;;;5068285;28;20443;-72
2022/03/27 13:25:56;;;;;;;20.87;5.93;;;;;;;;;;5065535;28;20457;-71
2022/03/27 13:28:23;;;;;;;19.43;5.00;;;;;;;;;;5065850;28;21009;-71
2022/03/27 13:30:51;;;;;;;18.80;5.03;;;;;;;;;;5064611;28;20473;-72
2022/03/27 13:33:18;;;;;;;17.90;5.10;;;;;;;;;;5065389;28;20451;-72
2022/03/27 13:35:49;;;;;;;18.33;5.03;;;;;;;;;;5067578;28;20963;-71
2022/03/27 13:38:18;;;;;;;19.93;5.07;;;;;;;;;;5064515;28;20441;-72
2022/03/27 13:43:30;;;;;;;24.67;5.17;;;;;;;;;;5063446;28;20448;-73
2022/03/27 13:45:57;;;;;;;20.53;5.33;;;;;;;;;;5065816;28;20872;-73
2022/03/27 13:48:25;;;;;;;22.27;5.93;;;;;;;;;;5066420;28;20505;-73
2022/03/27 13:50:54;;;;;;;22.97;6.13;;;;;;;;;;5063220;28;20438;-74
2022/03/27 13:53:22;;;;;;;20.33;5.20;;;;;;;;;;5064296;28;20450;-73
2022/03/27 13:55:50;;;;;;;22.77;6.23;;;;;;;;;;5065787;28;20450;-74
2022/03/27 13:58:17;;;;;;;19.30;6.67;;;;;;;;;;5063391;28;20453;-74
2022/03/27 14:00:45;;;;;;;21.73;6.17;;;;;;;;;;5064417;28;20449;-74
2022/03/27 14:03:12;;;;;;;20.23;5.47;;;;;;;;;;5062592;28;20817;-73
2022/03/27 14:05:40;;;;;;;21.80;6.37;;;;;;;;;;5061625;28;20486;-74
2022/03/27 14:08:08;;;;;;;23.60;5.97;;;;;;;;;;5066740;28;20475;-74
2022/03/27 14:10:37;;;;;;;19.50;6.83;;;;;;;;;;5063229;28;20440;-73
2022/03/27 14:13:04;;;;;;;27.90;6.67;;;;;;;;;;5064456;28;20447;-73
2022/03/27 14:15:32;;;;;;;23.77;5.97;;;;;;;;;;5065854;28;20962;-74
2022/03/27 14:18:02;;;;;;;22.10;6.70;;;;;;;;;;5063820;28;20439;-73
2022/03/27 14:20:30;;;;;;;24.33;5.97;;;;;;;;;;5063771;28;20892;-73
2022/03/27 14:22:57;;;;;;;22.60;5.70;;;;;;;;;;5061743;28;20442;-73
2022/03/27 14:25:26;;;;;;;20.47;6.23;;;;;;;;;;5061655;28;20450;-73
2022/03/27 14:27:56;;;;;;;20.57;5.63;;;;;;;;;;5060491;28;20444;-73
2022/03/27 14:30:24;;;;;;;30.20;5.73;;;;;;;;;;5062867;28;20861;-73
2022/03/27 14:32:51;;;;;;;21.70;5.90;;;;;;;;;;5063522;28;20930;-74
2022/03/27 14:35:19;;;;;;;18.63;6.20;;;;;;;;;;5060557;28;20453;-73
2022/03/27 14:37:47;;;;;;;20.83;6.27;;;;;;;;;;5063902;28;20443;-73
2022/03/27 14:40:16;;;;;;;19.87;5.47;;;;;;;;;;5065285;28;20556;-73
2022/03/27 14:42:44;;;;;;;19.83;5.23;;;;;;;;;;5064530;28;20949;-73
2022/03/27 14:45:14;;;;;;;17.87;4.60;;;;;;;;;;5063679;28;20508;-73
2022/03/27 14:47:42;;;;;;;18.53;4.53;;;;;;;;;;5063215;28;20454;-73
2022/03/27 14:50:10;;;;;;;21.63;5.67;;;;;;;;;;5063586;28;20481;-73
2022/03/27 14:52:38;;;;;;;22.17;5.40;;;;;;;;;;5063514;28;20494;-73
2022/03/27 14:57:53;;;;;;;16.63;4.80;;;;;;;;;;5063997;28;20434;-73